Aérodrome :
LOGIN :

S'inscrire | Disclaimer

   EN    FR    IT 

 










Légende :    VFR   VFR Marginal   IFR   IFR Intensif   IFR Très Intensif
Visi : 
Plafond : 
>= 8 km
>= 3000ft
5 à 8 km
1000 à 3000 ft
1500m à 5 km
500 à 1000 ft
800 à 1500m
200 à 500 ft
< 800m
< 200 ft
Symboles :   Orages  Brouillard  Fortes neiges  Fortes précipitations  Vent > 20 kt
SIGMETs :   Divers  Orages  Givrage  Turbulence  Onde Orograph.  Cendres Volcan.







- Altitude de l'aérodrome : 240 ft
- Code IATA : VLC


LEVC - Valencia Manises

DERNIER METAR :
  • 221400Z 28012KT 250V320 9999 FEW030 15/M02 Q1011 NOSIG

METARs EXPIRÉS :
  • 221330Z 30009KT 9999 FEW030 14/M02 Q1012 NOSIG
  • 221300Z 30009KT 270V330 9999 FEW030 14/M03 Q1012 NOSIG
  • 221230Z 28011KT 9999 FEW030 13/M04 Q1013 NOSIG
  • 221200Z 28010KT 240V300 9999 FEW030 13/M04 Q1014 NOSIG
  • 221130Z 29008KT 250V320 9999 FEW030 13/M04 Q1014 NOSIG

TAF TAF LEVC
Valide du 22 à 12h jusqu'au 23 à 12h UTC


221100Z 2212/2312 28010KT 9999 FEW030 TX15/2213Z TN00/2306Z
TEMPO 2212/2302 30014G24KT
BECMG 2308/2310 29020KT
TEMPO 2308/2312 29022G35KT
Pas de NOTAMs connus pour ce terrain.
3 SIGMETs publiés pour la FIR Barcelona (LECB) :
 
Onde orographique forte
LECB SIGMET 7 VALID 221300/221700 LEVA
LECB BARCELONA FIR/UIR SEV MTW FCST WI N3830 W00130 - N39 W00030 - N3840 W00010 - N38 W00130 - N3830 W00130 SFC/FL360 STNR NC=
Onde orographique forte
LECB SIGMET 6 VALID 221300/221700 LEVA
LECB BARCELONA FIR/UIR SEV MTW FCST WI N4010 W00130 - N4110 E00020 - N41 E001 - N4010 W00050 - N4010 W00130 SFC/FL360 STNR NC=
Onde orographique forte
LECB SIGMET 5 VALID 221300/221700 LEVA
LECB BARCELONA FIR/UIR SEV MTW FCST N OF LINE N4230 W00010 - N4230 E00110 FL060/360 STNR NC=



MET'MAP, la Météo Aéronautique d'un coup d'oeil ! - Copyright ORBIFLY Décembre 2007 - Disclaimer

ORBIFLY MET'MAP TEAM :

Programmation & Développement : Alexandra Zaïnal
Conception & Développement : Baudouin d'Aumeries
Co-Programmation & Développement : Marc-Olivier Méhu
Soutien technique & logistique : Manuel Goepfert

Contact : metmap@orbifly.com




SOURCES & CREDITS :

   NOAA